CheckWX is a tool to help pilots better visualize weather data.  It is not intended as a substitute for an official pre-flight weather briefing.

00:38:39 UTC

KELY METAR
Ely Arpt / Yelland Field / Airport
Ely, Nevada, USA
Current

25 mins ago

KELY 210014Z AUTO 27008G23KT 5SM VCTS -RA FEW021 SCT046 OVC070 10/04 A2985 RMK AO2 PK WND 24034/0000 RAB00 P0000 T01000044
Observed
Apr-21 @ 00:14 UTC
Wind
  • 270° at 8 KTS
  • Gusting to 23 KTS
Visibility
5 SM
Flight Rules
MVFR
Conditions
Area Thunderstorm, Light Rain
Cloud Levels
  • Few at 2,100' AGL
  • Scattered at 4,600' AGL
  • Overcast at 7,000' AGL
Temperature
10°C / 50°F
Dewpoint
C / 39°F
Humidity
67%
Altimeter
29.85" Hg
Pressure
1010.82 hPa
Current Rain
0.01"
Previous

46 mins ago

KELY 202353Z AUTO 31009KT 10SM SCT070 BKN080 BKN100 14/02 A2983 RMK AO2 PK WND 28026/2257 RAE00 SLP042 P0000 60000 T01440017 10206 20122 53002
Observed
Apr-20 @ 23:53 UTC
Wind
  • 310° at 9 KTS
Visibility
10 SM
Flight Rules
VFR
Cloud Levels
  • Scattered at 7,000' AGL
  • Broken at 8,000' AGL
  • Broken at 10,000' AGL
Temperature
14°C / 57°F
Dewpoint
C / 36°F
Humidity
44%
Altimeter
29.83" Hg
Pressure
1010.12 hPa
Current Rain
0.01"
Previous

2 hours ago

KELY 202253Z AUTO 28015G22KT 10SM -RA FEW050 OVC095 13/05 A2983 RMK AO2 PK WND 29033/2221 WSHFT 2202 RAB36 SLP040 P0000 T01280050
Observed
Apr-20 @ 22:53 UTC
Wind
  • 280° at 15 KTS
  • Gusting to 22 KTS
Visibility
10 SM
Flight Rules
VFR
Conditions
Light Rain
Cloud Levels
  • Few at 5,000' AGL
  • Overcast at 9,500' AGL
Temperature
13°C / 55°F
Dewpoint
C / 41°F
Humidity
59%
Altimeter
29.83" Hg
Pressure
1010.12 hPa
Current Rain
0.01"